New Preston, Connecticut
Current Conditions -  °F | °C
As of 11:20 AM on Monday 24 Nov 2014 (Local Time) from KOXC Reporting Station
Light Rain Light Rain  
Wind Chill: 16°   Ceiling: 300
Heat Index: 16°   Visibility: 4mi
Dew Point: 13°   Wind: 12mph
Humidity: 82%   Direction: 210°SSW
Pressure: 29.71"   Gusts: 25mph
Location:  41.6879°N, 73.3378°W
Report Text: KOXC 241520Z 21010G22KT 4SM -RA BR OVC003 16/13 A2971
Loading
Personal Weather Stations






























Interactive Weather Map New forecast layout! Learn more

10-Day Weather Forecast

Advertisements
Track Severe Weather on mobile